Palito Blanco, Texas
Current Conditions -  °F | °C
As of 6:53 PM on Friday 19 Dec 2014 (Local Time) from KALI Reporting Station
Overcast Overcast  
Wind Chill: 17°   Ceiling: 2000
Heat Index: 17°   Visibility: 10mi
Dew Point: 13°   Wind: 10mph
Humidity: 78%   Direction: 10°N
Pressure: 30.07"   Gusts: NA
Location:  27.6821°N, 98.1034°W
Report Text: KALI 200053Z AUTO 01009KT 10SM OVC020 17/13 A3007 RMK AO2 SLP181 T01670128
Loading
Personal Weather Stations






























Interactive Weather Map New forecast layout! Learn more

10-Day Weather Forecast

Advertisements
Track Severe Weather on mobile